createdAt,value
2022-08-05T00:07:21.895Z,18.3
2022-08-05T00:17:04.207Z,18.2
2022-08-05T00:27:10.203Z,18.1
2022-08-05T00:37:09.587Z,18.1
2022-08-05T00:47:06.704Z,17.9
2022-08-05T00:57:06.919Z,17.7
2022-08-05T01:07:07.495Z,17.6
2022-08-05T01:17:07.733Z,17.5
2022-08-05T01:27:15.049Z,17.5
2022-08-05T01:37:09.701Z,17.4
2022-08-05T01:47:10.103Z,17.3
2022-08-05T01:58:08.732Z,17.1
2022-08-05T02:07:11.386Z,17.1
2022-08-05T02:17:16.710Z,17.2
2022-08-05T02:27:13.080Z,17.2
2022-08-05T02:37:13.179Z,17.2
2022-08-05T02:47:14.086Z,17.1
2022-08-05T03:07:17.561Z,17.1
2022-08-05T03:17:16.004Z,17.1
2022-08-05T03:27:16.999Z,17
2022-08-05T03:37:17.180Z,17
2022-08-05T03:47:18.207Z,16.9
2022-08-05T03:57:18.419Z,16.8
2022-08-05T04:07:18.708Z,16.8
2022-08-05T04:17:19.284Z,16.9
2022-08-05T04:27:19.270Z,16.9
2022-08-05T04:37:19.446Z,16.7
2022-08-05T04:47:20.579Z,16.6
2022-08-05T04:57:20.687Z,16.5
2022-08-05T05:07:24.026Z,16.5
2022-08-05T05:17:24.467Z,16.6
2022-08-05T05:27:23.321Z,16.6
2022-08-05T05:37:23.461Z,16.7
2022-08-05T05:47:23.525Z,16.7
2022-08-05T05:57:24.716Z,16.7
2022-08-05T06:07:41.491Z,16.6
2022-08-05T06:17:30.957Z,16.6
2022-08-05T06:28:09.698Z,16.6
2022-08-05T06:37:55.726Z,16.6
2022-08-05T06:47:30.215Z,16.5
2022-08-05T06:57:56.994Z,16.5
2022-08-05T07:07:35.313Z,16.4
2022-08-05T07:17:58.041Z,16.4
2022-08-05T07:27:56.828Z,16.3
2022-08-05T07:37:35.936Z,16.4
2022-08-05T07:47:31.179Z,16.4
2022-08-05T08:07:39.366Z,16.3
2022-08-05T08:17:32.002Z,16.1
2022-08-05T08:27:35.831Z,16.1
2022-08-05T08:37:33.083Z,16.1
2022-08-05T08:47:47.966Z,16.2
2022-08-05T08:57:42.191Z,16.3
2022-08-05T09:17:41.521Z,16.3
2022-08-05T09:28:03.518Z,16.3
2022-08-05T09:38:13.362Z,16.4
2022-08-05T09:47:48.933Z,16.6
2022-08-05T09:57:39.499Z,16.7
2022-08-05T10:08:11.499Z,16.9
2022-08-05T10:17:39.979Z,17.1
2022-08-05T10:28:10.001Z,17.6
2022-08-05T10:37:40.387Z,18.3
2022-08-05T10:47:40.423Z,19
2022-08-05T10:57:41.433Z,19.7
2022-08-05T11:08:01.539Z,20
2022-08-05T11:38:27.331Z,20.4
2022-08-05T11:47:48.392Z,20.5
2022-08-05T11:58:09.065Z,20.7
2022-08-05T12:08:03.100Z,20.7
2022-08-05T12:18:00.928Z,20.3
2022-08-05T12:27:52.802Z,20.1
2022-08-05T12:37:47.957Z,20.3
2022-08-05T12:48:01.198Z,21.6
2022-08-05T12:58:39.630Z,23
2022-08-05T13:07:57.878Z,21.8
2022-08-05T13:27:50.870Z,20.5
2022-08-05T13:37:55.416Z,21.1
2022-08-05T13:48:08.423Z,21.8
2022-08-05T13:57:52.477Z,21.7
2022-08-05T14:07:56.807Z,22.3
2022-08-05T14:17:55.001Z,23.4
2022-08-05T14:27:54.548Z,24.1
2022-08-05T14:37:55.712Z,22.3
2022-08-05T14:57:56.791Z,22.1
2022-08-05T15:08:05.881Z,22.8
2022-08-05T15:17:58.145Z,23
2022-08-05T15:27:58.913Z,23.4
2022-08-05T15:38:09.047Z,23.9
2022-08-05T15:47:59.848Z,23.4
2022-08-05T15:58:00.681Z,22.6
2022-08-05T16:08:01.204Z,22.3
2022-08-05T16:18:04.169Z,23
2022-08-05T16:28:05.774Z,22.8
2022-08-05T16:48:03.658Z,23
2022-08-05T17:08:05.230Z,22.1
2022-08-05T17:28:05.810Z,21.8
2022-08-05T17:38:06.376Z,21.6
2022-08-05T17:58:07.227Z,20.6
2022-08-05T18:08:07.692Z,20.8
2022-08-05T18:18:11.256Z,20.3
2022-08-05T18:28:09.257Z,19.7
2022-08-05T18:38:09.347Z,19.2
2022-08-05T18:48:10.942Z,18.8
2022-08-05T18:58:15.195Z,18.5
2022-08-05T19:08:12.166Z,18.1
2022-08-05T19:18:13.715Z,17.8
2022-08-05T19:28:12.198Z,17.5
2022-08-05T19:38:12.512Z,17.2
2022-08-05T19:48:14.209Z,17.1
2022-08-05T19:58:28.143Z,16.7
2022-08-05T20:08:15.134Z,16.5
2022-08-05T20:18:33.080Z,16.4
2022-08-05T20:28:17.101Z,16.2
2022-08-05T20:38:20.296Z,15.9
2022-08-05T20:48:18.596Z,15.6
2022-08-05T20:58:19.646Z,15.6
2022-08-05T21:18:20.764Z,15.2
2022-08-05T21:28:23.557Z,15
2022-08-05T21:38:21.462Z,14.7
2022-08-05T21:48:22.456Z,14.5
2022-08-05T21:58:25.014Z,14.2
2022-08-05T22:28:23.772Z,13.5
2022-08-05T22:38:24.194Z,13.4
2022-08-05T22:48:27.276Z,13.3
2022-08-05T22:58:28.193Z,13.1
2022-08-05T23:08:25.468Z,12.8
2022-08-05T23:18:26.346Z,12.6
2022-08-05T23:28:26.933Z,12.4
2022-08-05T23:38:26.953Z,12.3
2022-08-05T23:48:27.456Z,12.2
2022-08-05T23:58:31.525Z,12
